Time,TemperatureF,DewpointF,PressureIn,WindDirection,WindDirectionDegrees,WindSpeedMPH,WindSpeedGustMPH,Humidity,HourlyPrecipIn,Conditions,Clouds,dailyrainin,SoftwareType,DateUTC
2013-03-04 00:00:00,62.5,55.5,30.04,SE,135,6.0,13.0,78,0.00,,,0.00,Wunderground v.1.13,2013-03-04 06:00:00,
2013-03-04 00:05:00,62.5,55.5,30.04,SE,135,6.0,13.0,78,0.00,,,0.00,Wunderground v.1.13,2013-03-04 06:05:00,
2013-03-04 00:10:00,62.5,55.5,30.04,SE,135,6.0,13.0,78,0.00,,,0.00,Wunderground v.1.13,2013-03-04 06:10:00,
2013-03-04 00:15:00,62.5,55.5,30.04,SE,135,6.0,13.0,78,0.00,,,0.00,Wunderground v.1.13,2013-03-04 06:15:00,
2013-03-04 00:20:00,62.5,55.5,30.04,SE,135,6.0,13.0,78,0.00,,,0.00,Wunderground v.1.13,2013-03-04 06:20:00,
2013-03-04 00:25:00,62.5,55.5,30.04,SE,135,6.0,13.0,78,0.00,,,0.00,Wunderground v.1.13,2013-03-04 06:25:00,
2013-03-04 00:30:00,62.5,55.5,30.04,SE,135,6.0,13.0,78,0.00,,,0.00,Wunderground v.1.13,2013-03-04 06:30:00,
2013-03-04 00:35:00,62.5,55.5,30.04,SE,135,6.0,13.0,78,0.00,,,0.00,Wunderground v.1.13,2013-03-04 06:35:00,
2013-03-04 00:40:00,62.5,55.5,30.04,SE,135,6.0,13.0,78,0.00,,,0.00,Wunderground v.1.13,2013-03-04 06:40:00,
2013-03-04 00:45:00,62.7,56.1,30.04,SE,135,6.0,16.0,79,0.00,,,0.00,Wunderground v.1.13,2013-03-04 06:45:00,
2013-03-04 00:50:00,62.7,56.1,30.04,SE,135,6.0,16.0,79,0.00,,,0.00,Wunderground v.1.13,2013-03-04 06:50:00,
2013-03-04 00:55:00,62.7,56.1,30.04,SE,135,6.0,16.0,79,0.00,,,0.00,Wunderground v.1.13,2013-03-04 06:55:00,
2013-03-04 01:00:00,62.7,56.1,30.04,SE,135,6.0,16.0,79,0.00,,,0.00,Wunderground v.1.13,2013-03-04 07:00:00,
2013-03-04 01:05:00,62.7,56.1,30.04,SE,135,6.0,16.0,79,0.00,,,0.00,Wunderground v.1.13,2013-03-04 07:05:00,
2013-03-04 01:10:00,62.7,56.1,30.04,SE,135,6.0,16.0,79,0.00,,,0.00,Wunderground v.1.13,2013-03-04 07:10:00,
2013-03-04 01:15:00,62.9,56.3,30.02,SE,135,6.0,11.0,79,0.00,,,0.00,Wunderground v.1.13,2013-03-04 07:15:00,
2013-03-04 01:20:00,62.9,56.3,30.02,SE,135,6.0,11.0,79,0.00,,,0.00,Wunderground v.1.13,2013-03-04 07:20:00,
2013-03-04 01:25:00,62.9,56.3,30.02,SE,135,6.0,11.0,79,0.00,,,0.00,Wunderground v.1.13,2013-03-04 07:25:00,
2013-03-04 01:30:00,62.9,56.3,30.02,SE,135,6.0,11.0,79,0.00,,,0.00,Wunderground v.1.13,2013-03-04 07:30:00,
2013-03-04 01:35:00,62.9,56.3,30.02,SE,135,6.0,11.0,79,0.00,,,0.00,Wunderground v.1.13,2013-03-04 07:35:00,
2013-03-04 01:40:00,62.9,56.3,30.02,SE,135,6.0,11.0,79,0.00,,,0.00,Wunderground v.1.13,2013-03-04 07:40:00,
2013-03-04 01:45:00,63.3,56.7,30.01,SSE,158,6.0,13.0,79,0.00,,,0.00,Wunderground v.1.13,2013-03-04 07:45:00,
2013-03-04 01:50:00,63.3,56.7,30.01,SSE,158,6.0,13.0,79,0.00,,,0.00,Wunderground v.1.13,2013-03-04 07:50:00,
2013-03-04 01:55:00,63.3,56.7,30.01,SSE,158,6.0,13.0,79,0.00,,,0.00,Wunderground v.1.13,2013-03-04 07:55:00,
2013-03-04 02:00:00,63.3,56.7,30.01,SSE,158,6.0,13.0,79,0.00,,,0.00,Wunderground v.1.13,2013-03-04 08:00:00,
2013-03-04 02:05:00,63.3,56.7,30.01,SSE,158,6.0,13.0,79,0.00,,,0.00,Wunderground v.1.13,2013-03-04 08:05:00,
2013-03-04 02:10:00,63.3,56.7,30.01,SSE,158,6.0,13.0,79,0.00,,,0.00,Wunderground v.1.13,2013-03-04 08:10:00,
2013-03-04 02:15:00,63.4,57.1,30.00,SSE,158,6.0,13.0,80,0.00,,,0.00,Wunderground v.1.13,2013-03-04 08:15:00,
2013-03-04 02:20:00,63.4,57.1,30.00,SSE,158,6.0,13.0,80,0.00,,,0.00,Wunderground v.1.13,2013-03-04 08:20:00,
2013-03-04 02:25:00,63.4,57.1,30.00,SSE,158,6.0,13.0,80,0.00,,,0.00,Wunderground v.1.13,2013-03-04 08:25:00,
2013-03-04 02:30:00,63.4,57.1,30.00,SSE,158,6.0,13.0,80,0.00,,,0.00,Wunderground v.1.13,2013-03-04 08:30:00,
2013-03-04 02:35:00,63.4,57.1,30.00,SSE,158,6.0,13.0,80,0.00,,,0.00,Wunderground v.1.13,2013-03-04 08:35:00,
2013-03-04 02:40:00,63.4,57.1,30.00,SSE,158,6.0,13.0,80,0.00,,,0.00,Wunderground v.1.13,2013-03-04 08:40:00,
2013-03-04 02:45:00,63.7,57.4,29.99,SSE,158,5.0,14.0,80,0.00,,,0.00,Wunderground v.1.13,2013-03-04 08:45:00,
2013-03-04 02:50:00,63.7,57.4,29.99,SSE,158,5.0,14.0,80,0.00,,,0.00,Wunderground v.1.13,2013-03-04 08:50:00,
2013-03-04 02:55:00,63.7,57.4,29.99,SSE,158,5.0,14.0,80,0.00,,,0.00,Wunderground v.1.13,2013-03-04 08:55:00,
2013-03-04 03:00:00,63.7,57.4,29.99,SSE,158,5.0,14.0,80,0.00,,,0.00,Wunderground v.1.13,2013-03-04 09:00:00,
2013-03-04 03:05:00,63.7,57.4,29.99,SSE,158,5.0,14.0,80,0.00,,,0.00,Wunderground v.1.13,2013-03-04 09:05:00,
2013-03-04 03:10:00,63.7,57.4,29.99,SSE,158,5.0,14.0,80,0.00,,,0.00,Wunderground v.1.13,2013-03-04 09:10:00,
2013-03-04 03:15:00,64.0,58.1,29.97,SSE,158,6.0,15.0,81,0.00,,,0.00,Wunderground v.1.13,2013-03-04 09:15:00,
2013-03-04 03:20:00,64.0,58.1,29.97,SSE,158,6.0,15.0,81,0.00,,,0.00,Wunderground v.1.13,2013-03-04 09:20:00,
2013-03-04 03:25:00,64.0,58.1,29.97,SSE,158,6.0,15.0,81,0.00,,,0.00,Wunderground v.1.13,2013-03-04 09:25:00,
2013-03-04 03:30:00,64.0,58.1,29.97,SSE,158,6.0,15.0,81,0.00,,,0.00,Wunderground v.1.13,2013-03-04 09:30:00,
2013-03-04 03:35:00,64.0,58.1,29.97,SSE,158,6.0,15.0,81,0.00,,,0.00,Wunderground v.1.13,2013-03-04 09:35:00,
2013-03-04 03:40:00,64.0,58.1,29.97,SSE,158,6.0,15.0,81,0.00,,,0.00,Wunderground v.1.13,2013-03-04 09:40:00,
2013-03-04 03:45:00,64.0,58.4,29.96,SSE,158,6.0,15.0,82,0.00,,,0.00,Wunderground v.1.13,2013-03-04 09:45:00,
2013-03-04 03:50:00,64.0,58.4,29.96,SSE,158,6.0,15.0,82,0.00,,,0.00,Wunderground v.1.13,2013-03-04 09:50:00,
2013-03-04 03:55:00,64.0,58.4,29.96,SSE,158,6.0,15.0,82,0.00,,,0.00,Wunderground v.1.13,2013-03-04 09:55:00,
2013-03-04 04:00:00,64.0,58.4,29.96,SSE,158,6.0,15.0,82,0.00,,,0.00,Wunderground v.1.13,2013-03-04 10:00:00,
2013-03-04 04:05:00,64.0,58.4,29.96,SSE,158,6.0,15.0,82,0.00,,,0.00,Wunderground v.1.13,2013-03-04 10:05:00,
2013-03-04 04:10:00,64.0,58.4,29.96,SSE,158,6.0,15.0,82,0.00,,,0.00,Wunderground v.1.13,2013-03-04 10:10:00,
2013-03-04 04:15:00,64.4,58.8,29.95,SSE,158,6.0,19.0,82,0.00,,,0.00,Wunderground v.1.13,2013-03-04 10:15:00,
2013-03-04 04:20:00,64.4,58.8,29.95,SSE,158,6.0,19.0,82,0.00,,,0.00,Wunderground v.1.13,2013-03-04 10:20:00,
2013-03-04 04:25:00,64.4,58.8,29.95,SSE,158,6.0,19.0,82,0.00,,,0.00,Wunderground v.1.13,2013-03-04 10:25:00,
2013-03-04 04:30:00,64.4,58.8,29.95,SSE,158,6.0,19.0,82,0.00,,,0.00,Wunderground v.1.13,2013-03-04 10:30:00,
2013-03-04 04:35:00,64.6,59.0,29.95,South,174,8.0,8.0,82,0.00,,,0.00,Wunderground v.1.13,2013-03-04 10:35:00,
2013-03-04 04:40:00,64.7,58.7,29.95,South,176,9.0,9.0,81,0.00,,,0.00,Wunderground v.1.13,2013-03-04 10:40:00,
2013-03-04 04:45:00,64.7,58.7,29.95,SW,219,8.0,9.0,81,0.00,,,0.00,Wunderground v.1.13,2013-03-04 10:45:00,
2013-03-04 04:50:00,64.7,58.7,29.95,SSW,205,8.0,8.0,81,0.00,,,0.00,Wunderground v.1.13,2013-03-04 10:50:00,
2013-03-04 04:55:00,64.7,58.7,29.95,SSE,165,8.0,8.0,81,0.00,,,0.00,Wunderground v.1.13,2013-03-04 10:55:00,
2013-03-04 05:05:00,64.9,58.6,29.95,SSE,153,8.0,8.0,80,0.00,,,0.00,Wunderground v.1.13,2013-03-04 11:05:00,
2013-03-04 05:10:00,65.0,58.3,29.95,SE,143,9.0,9.0,79,0.00,,,0.00,Wunderground v.1.13,2013-03-04 11:10:00,
2013-03-04 05:20:00,65.0,58.3,29.95,SSW,195,9.0,9.0,79,0.00,,,0.00,Wunderground v.1.13,2013-03-04 11:20:00,
2013-03-04 05:25:00,65.0,58.3,29.94,SSE,149,8.0,9.0,79,0.00,,,0.00,Wunderground v.1.13,2013-03-04 11:25:00,
2013-03-04 05:35:00,65.1,58.1,29.94,South,177,8.0,8.0,78,0.00,,,0.00,Wunderground v.1.13,2013-03-04 11:35:00,
2013-03-04 05:40:00,65.1,58.1,29.94,SE,141,9.0,9.0,78,0.00,,,0.00,Wunderground v.1.13,2013-03-04 11:40:00,
2013-03-04 05:45:00,65.1,58.1,29.94,SSW,213,8.0,8.0,78,0.00,,,0.00,Wunderground v.1.13,2013-03-04 11:45:00,
2013-03-04 05:50:00,65.0,58.0,29.94,SSE,157,7.0,7.0,78,0.00,,,0.00,Wunderground v.1.13,2013-03-04 11:50:00,
2013-03-04 05:55:00,65.0,58.3,29.94,SE,138,7.0,12.0,79,0.00,,,0.00,Wunderground v.1.13,2013-03-04 11:55:00,
2013-03-04 06:05:00,65.2,58.5,29.95,SSW,202,8.0,9.0,79,0.00,,,0.00,Wunderground v.1.13,2013-03-04 12:05:00,
2013-03-04 06:15:00,65.3,58.6,29.95,SSE,154,8.0,8.0,79,0.00,,,0.00,Wunderground v.1.13,2013-03-04 12:15:00,
2013-03-04 06:20:00,65.2,58.5,29.95,SSW,209,8.0,9.0,79,0.00,,,0.00,Wunderground v.1.13,2013-03-04 12:20:00,
2013-03-04 06:25:00,65.3,58.6,29.95,South,176,8.0,8.0,79,0.00,,,0.00,Wunderground v.1.13,2013-03-04 12:25:00,
2013-03-04 06:35:00,65.3,58.6,29.96,SSE,155,8.0,8.0,79,0.00,,,0.00,Wunderground v.1.13,2013-03-04 12:35:00,
2013-03-04 06:40:00,65.2,58.5,29.96,SSW,205,8.0,9.0,79,0.00,,,0.00,Wunderground v.1.13,2013-03-04 12:40:00,
2013-03-04 06:45:00,65.3,58.6,29.96,South,190,7.0,15.0,79,0.00,,,0.00,Wunderground v.1.13,2013-03-04 12:45:00,
2013-03-04 06:50:00,65.4,58.7,29.96,SSW,201,9.0,9.0,79,0.00,,,0.00,Wunderground v.1.13,2013-03-04 12:50:00,
2013-03-04 06:55:00,65.3,58.6,29.96,South,190,8.0,8.0,79,0.00,,,0.00,Wunderground v.1.13,2013-03-04 12:55:00,
2013-03-04 07:05:00,65.5,58.8,29.96,South,186,10.0,16.0,79,0.00,,,0.00,Wunderground v.1.13,2013-03-04 13:05:00,
2013-03-04 07:15:00,65.5,59.2,29.96,SSE,155,8.0,10.0,80,0.00,,,0.00,Wunderground v.1.13,2013-03-04 13:15:00,
2013-03-04 07:20:00,65.7,59.4,29.95,South,185,9.0,9.0,80,0.00,,,0.00,Wunderground v.1.13,2013-03-04 13:20:00,
2013-03-04 07:25:00,65.8,59.1,29.95,SSW,198,9.0,9.0,79,0.00,,,0.00,Wunderground v.1.13,2013-03-04 13:25:00,
2013-03-04 07:35:00,66.2,59.5,29.96,South,178,9.0,9.0,79,0.00,,,0.00,Wunderground v.1.13,2013-03-04 13:35:00,
2013-03-04 07:40:00,66.5,59.4,29.96,SSE,149,9.0,13.0,78,0.00,,,0.00,Wunderground v.1.13,2013-03-04 13:40:00,
2013-03-04 07:45:00,66.7,59.6,29.96,SSE,157,9.0,15.0,78,0.00,,,0.00,Wunderground v.1.13,2013-03-04 13:45:00,
2013-03-04 07:50:00,66.9,59.5,29.96,SSE,148,9.0,9.0,77,0.00,,,0.00,Wunderground v.1.13,2013-03-04 13:50:00,
2013-03-04 07:55:00,67.2,59.7,29.96,SSE,163,10.0,12.0,77,0.00,,,0.00,Wunderground v.1.13,2013-03-04 13:55:00,
2013-03-04 08:05:00,67.7,59.5,29.95,South,190,10.0,12.0,75,0.00,,,0.00,Wunderground v.1.13,2013-03-04 14:05:00,
2013-03-04 08:15:00,68.2,60.0,29.96,SE,146,10.0,12.0,75,0.00,,,0.00,Wunderground v.1.13,2013-03-04 14:15:00,
2013-03-04 08:20:00,68.4,59.8,29.96,SE,146,10.0,10.0,74,0.00,,,0.00,Wunderground v.1.13,2013-03-04 14:20:00,
2013-03-04 08:25:00,68.7,59.7,29.96,ESE,123,10.0,15.0,73,0.00,,,0.00,Wunderground v.1.13,2013-03-04 14:25:00,
2013-03-04 08:35:00,69.1,59.7,29.96,SW,217,11.0,11.0,72,0.00,,,0.00,Wunderground v.1.13,2013-03-04 14:35:00,
2013-03-04 08:40:00,69.5,60.1,29.96,ESE,123,10.0,13.0,72,0.00,,,0.00,Wunderground v.1.13,2013-03-04 14:40:00,
2013-03-04 08:45:00,69.7,59.5,29.96,SE,140,10.0,18.0,70,0.00,,,0.00,Wunderground v.1.13,2013-03-04 14:45:00,
2013-03-04 08:55:00,70.1,59.5,29.96,SSW,200,13.0,16.0,69,0.00,,,0.00,Wunderground v.1.13,2013-03-04 14:55:00,
2013-03-04 09:05:00,70.9,59.4,29.97,SW,220,11.0,11.0,67,0.00,,,0.00,Wunderground v.1.13,2013-03-04 15:05:00,
2013-03-04 09:15:00,71.1,58.7,29.97,South,170,13.0,13.0,65,0.00,,,0.00,Wunderground v.1.13,2013-03-04 15:15:00,
2013-03-04 09:20:00,71.4,59.0,29.98,South,191,13.0,16.0,65,0.00,,,0.00,Wunderground v.1.13,2013-03-04 15:20:00,
2013-03-04 09:25:00,71.6,59.2,29.98,South,188,13.0,13.0,65,0.00,,,0.00,Wunderground v.1.13,2013-03-04 15:25:00,
2013-03-04 09:35:00,72.5,59.2,29.98,South,181,10.0,10.0,63,0.00,,,0.00,Wunderground v.1.13,2013-03-04 15:35:00,
2013-03-04 09:40:00,72.8,59.5,29.98,SSW,198,10.0,10.0,63,0.00,,,0.00,Wunderground v.1.13,2013-03-04 15:40:00,
2013-03-04 09:45:00,73.1,58.4,29.98,SSE,162,11.0,11.0,60,0.00,,,0.00,Wunderground v.1.13,2013-03-04 15:45:00,
2013-03-04 09:55:00,73.4,58.7,29.97,SSE,158,12.0,12.0,60,0.00,,,0.00,Wunderground v.1.13,2013-03-04 15:55:00,
2013-03-04 10:00:00,73.6,58.9,29.97,SSE,154,12.0,14.0,60,0.00,,,0.00,Wunderground v.1.13,2013-03-04 16:00:00,
2013-03-04 10:05:00,73.7,58.0,29.97,SSW,193,13.0,13.0,58,0.00,,,0.00,Wunderground v.1.13,2013-03-04 16:05:00,
2013-03-04 10:15:00,73.7,58.0,29.96,SW,223,14.0,20.0,58,0.00,,,0.00,Wunderground v.1.13,2013-03-04 16:15:00,
2013-03-04 10:20:00,74.1,57.9,29.96,SSW,207,13.0,15.0,57,0.00,,,0.00,Wunderground v.1.13,2013-03-04 16:20:00,
2013-03-04 10:30:00,74.7,57.5,29.95,South,175,12.0,14.0,55,0.00,,,0.00,Wunderground v.1.13,2013-03-04 16:30:00,
2013-03-04 10:40:00,75.6,58.3,29.95,SW,227,11.0,11.0,55,0.00,,,0.00,Wunderground v.1.13,2013-03-04 16:40:00,
2013-03-04 10:45:00,75.9,57.5,29.95,SSW,201,10.0,10.0,53,0.00,,,0.00,Wunderground v.1.13,2013-03-04 16:45:00,
2013-03-04 10:50:00,75.5,57.2,29.95,South,188,11.0,12.0,53,0.00,,,0.00,Wunderground v.1.13,2013-03-04 16:50:00,
2013-03-04 10:55:00,75.8,56.4,29.95,ESE,123,13.0,13.0,51,0.00,,,0.00,Wunderground v.1.13,2013-03-04 16:55:00,
2013-03-04 11:05:00,76.2,57.3,29.95,SSW,211,12.0,12.0,52,0.00,,,0.00,Wunderground v.1.13,2013-03-04 17:05:00,
2013-03-04 11:15:00,76.6,57.7,29.94,South,171,12.0,19.0,52,0.00,,,0.00,Wunderground v.1.13,2013-03-04 17:15:00,
2013-03-04 11:20:00,76.6,58.2,29.94,SSE,153,12.0,12.0,53,0.00,,,0.00,Wunderground v.1.13,2013-03-04 17:20:00,
2013-03-04 11:25:00,77.1,59.2,29.93,SSE,150,12.0,17.0,54,0.00,,,0.00,Wunderground v.1.13,2013-03-04 17:25:00,
2013-03-04 11:35:00,77.7,58.1,29.93,SSE,156,12.0,18.0,51,0.00,,,0.00,Wunderground v.1.13,2013-03-04 17:35:00,
2013-03-04 11:40:00,77.2,57.7,29.92,SE,126,13.0,13.0,51,0.00,,,0.00,Wunderground v.1.13,2013-03-04 17:40:00,
2013-03-04 11:45:00,77.9,58.3,29.92,SSE,159,12.0,12.0,51,0.00,,,0.00,Wunderground v.1.13,2013-03-04 17:45:00,
2013-03-04 11:55:00,77.5,57.4,29.92,SE,144,13.0,14.0,50,0.00,,,0.00,Wunderground v.1.13,2013-03-04 17:55:00,
2013-03-04 12:05:00,77.7,56.4,29.91,WSW,238,13.0,14.0,48,0.00,,,0.00,Wunderground v.1.13,2013-03-04 18:05:00,
2013-03-04 12:15:00,78.4,56.5,29.91,SSW,193,12.0,12.0,47,0.00,,,0.00,Wunderground v.1.13,2013-03-04 18:15:00,
2013-03-04 12:20:00,78.7,56.8,29.90,South,184,12.0,12.0,47,0.00,,,0.00,Wunderground v.1.13,2013-03-04 18:20:00,
2013-03-04 12:25:00,79.1,57.1,29.89,SE,138,11.0,11.0,47,0.00,,,0.00,Wunderground v.1.13,2013-03-04 18:25:00,
2013-03-04 12:30:00,78.8,56.3,29.89,SSW,198,12.0,12.0,46,0.00,,,0.00,Wunderground v.1.13,2013-03-04 18:30:00,
2013-03-04 12:40:00,79.0,56.5,29.88,SE,140,12.0,17.0,46,0.00,,,0.00,Wunderground v.1.13,2013-03-04 18:40:00,
2013-03-04 12:45:00,79.8,57.2,29.88,SSE,155,11.0,11.0,46,0.00,,,0.00,Wunderground v.1.13,2013-03-04 18:45:00,
2013-03-04 12:50:00,80.0,57.4,29.88,South,169,11.0,14.0,46,0.00,,,0.00,Wunderground v.1.13,2013-03-04 18:50:00,
2013-03-04 12:55:00,80.3,58.8,29.88,SE,138,10.0,15.0,48,0.00,,,0.00,Wunderground v.1.13,2013-03-04 18:55:00,
2013-03-04 13:05:00,80.1,57.5,29.87,ESE,117,13.0,13.0,46,0.00,,,0.00,Wunderground v.1.13,2013-03-04 19:05:00,
2013-03-04 13:15:00,80.1,57.5,29.87,SSE,147,12.0,18.0,46,0.00,,,0.00,Wunderground v.1.13,2013-03-04 19:15:00,
2013-03-04 13:20:00,79.6,57.0,29.86,South,175,13.0,15.0,46,0.00,,,0.00,Wunderground v.1.13,2013-03-04 19:20:00,
2013-03-04 13:30:00,80.0,58.0,29.86,SW,217,11.0,11.0,47,0.00,,,0.00,Wunderground v.1.13,2013-03-04 19:30:00,
2013-03-04 13:40:00,80.0,57.4,29.85,SSE,156,10.0,14.0,46,0.00,,,0.00,Wunderground v.1.13,2013-03-04 19:40:00,
2013-03-04 13:50:00,79.9,57.3,29.85,SSE,166,12.0,12.0,46,0.00,,,0.00,Wunderground v.1.13,2013-03-04 19:50:00,
2013-03-04 13:55:00,80.2,58.1,29.85,SSE,148,11.0,14.0,47,0.00,,,0.00,Wunderground v.1.13,2013-03-04 19:55:00,
2013-03-04 14:00:00,79.9,57.3,29.85,South,173,12.0,12.0,46,0.00,,,0.00,Wunderground v.1.13,2013-03-04 20:00:00,
2013-03-04 14:05:00,80.0,58.5,29.84,SE,146,12.0,17.0,48,0.00,,,0.00,Wunderground v.1.13,2013-03-04 20:05:00,
2013-03-04 14:15:00,80.0,58.0,29.84,SSE,150,11.0,11.0,47,0.00,,,0.00,Wunderground v.1.13,2013-03-04 20:15:00,
2013-03-04 14:25:00,80.3,58.2,29.83,SE,138,12.0,12.0,47,0.00,,,0.00,Wunderground v.1.13,2013-03-04 20:25:00,
2013-03-04 14:35:00,80.2,57.5,29.83,South,182,13.0,13.0,46,0.00,,,0.00,Wunderground v.1.13,2013-03-04 20:35:00,
2013-03-04 14:40:00,80.1,57.5,29.83,SSE,167,13.0,16.0,46,0.00,,,0.00,Wunderground v.1.13,2013-03-04 20:40:00,
2013-03-04 14:45:00,80.2,58.1,29.82,SSW,192,12.0,12.0,47,0.00,,,0.00,Wunderground v.1.13,2013-03-04 20:45:00,
2013-03-04 14:50:00,80.5,57.8,29.82,South,179,11.0,13.0,46,0.00,,,0.00,Wunderground v.1.13,2013-03-04 20:50:00,
2013-03-04 14:55:00,81.0,58.3,29.82,South,176,10.0,10.0,46,0.00,,,0.00,Wunderground v.1.13,2013-03-04 20:55:00,
2013-03-04 15:05:00,80.2,58.7,29.82,SSW,206,12.0,12.0,48,0.00,,,0.00,Wunderground v.1.13,2013-03-04 21:05:00,
2013-03-04 15:15:00,80.5,58.4,29.82,SSW,196,11.0,11.0,47,0.00,,,0.00,Wunderground v.1.13,2013-03-04 21:15:00,
2013-03-04 15:20:00,80.1,58.6,29.82,SSW,211,11.0,11.0,48,0.00,,,0.00,Wunderground v.1.13,2013-03-04 21:20:00,
2013-03-04 15:30:00,80.7,59.2,29.81,SSE,155,10.0,16.0,48,0.00,,,0.00,Wunderground v.1.13,2013-03-04 21:30:00,
2013-03-04 15:35:00,80.3,59.4,29.81,SE,144,11.0,13.0,49,0.00,,,0.00,Wunderground v.1.13,2013-03-04 21:35:00,
2013-03-04 15:40:00,80.1,59.8,29.81,SE,143,11.0,11.0,50,0.00,,,0.00,Wunderground v.1.13,2013-03-04 21:40:00,
2013-03-04 15:50:00,79.7,59.4,29.80,SSE,147,12.0,12.0,50,0.00,,,0.00,Wunderground v.1.13,2013-03-04 21:50:00,
2013-03-04 16:00:00,79.7,60.0,29.80,South,173,11.0,11.0,51,0.00,,,0.00,Wunderground v.1.13,2013-03-04 22:00:00,
2013-03-04 16:05:00,79.4,59.7,29.80,SSE,154,12.0,12.0,51,0.00,,,0.00,Wunderground v.1.13,2013-03-04 22:05:00,
2013-03-04 16:15:00,79.5,60.3,29.80,SSE,157,10.0,10.0,52,0.00,,,0.00,Wunderground v.1.13,2013-03-04 22:15:00,
2013-03-04 16:20:00,79.2,60.6,29.80,South,172,11.0,11.0,53,0.00,,,0.00,Wunderground v.1.13,2013-03-04 22:20:00,
2013-03-04 16:25:00,79.5,59.8,29.80,SSE,166,11.0,12.0,51,0.00,,,0.00,Wunderground v.1.13,2013-03-04 22:25:00,
2013-03-04 16:30:00,78.9,60.8,29.80,SE,140,11.0,13.0,54,0.00,,,0.00,Wunderground v.1.13,2013-03-04 22:30:00,
2013-03-04 16:35:00,79.2,61.6,29.80,SSE,151,10.0,10.0,55,0.00,,,0.00,Wunderground v.1.13,2013-03-04 22:35:00,
2013-03-04 16:40:00,78.8,61.3,29.80,SE,143,10.0,10.0,55,0.00,,,0.00,Wunderground v.1.13,2013-03-04 22:40:00,
2013-03-04 16:45:00,78.5,61.0,29.80,SE,144,11.0,11.0,55,0.00,,,0.00,Wunderground v.1.13,2013-03-04 22:45:00,
2013-03-04 16:55:00,78.0,61.5,29.80,ESE,121,13.0,13.0,57,0.00,,,0.00,Wunderground v.1.13,2013-03-04 22:55:00,
2013-03-04 17:00:00,77.7,61.3,29.79,SSE,164,12.0,12.0,57,0.00,,,0.00,Wunderground v.1.13,2013-03-04 23:00:00,
2013-03-04 17:05:00,77.6,61.7,29.79,SE,138,10.0,10.0,58,0.00,,,0.00,Wunderground v.1.13,2013-03-04 23:05:00,
2013-03-04 17:15:00,76.9,62.0,29.80,SSE,150,12.0,13.0,60,0.00,,,0.00,Wunderground v.1.13,2013-03-04 23:15:00,
2013-03-04 17:20:00,76.6,61.2,29.80,South,175,12.0,19.0,59,0.00,,,0.00,Wunderground v.1.13,2013-03-04 23:20:00,
2013-03-04 17:30:00,75.9,61.5,29.80,SSE,150,11.0,11.0,61,0.00,,,0.00,Wunderground v.1.13,2013-03-04 23:30:00,
2013-03-04 17:40:00,75.3,61.8,29.80,SSE,154,11.0,12.0,63,0.00,,,0.00,Wunderground v.1.13,2013-03-04 23:40:00,
2013-03-04 17:45:00,75.1,61.6,29.80,South,170,10.0,10.0,63,0.00,,,0.00,Wunderground v.1.13,2013-03-04 23:45:00,
2013-03-04 17:50:00,74.7,61.7,29.80,SSE,167,11.0,11.0,64,0.00,,,0.00,Wunderground v.1.13,2013-03-04 23:50:00,
2013-03-04 17:55:00,74.4,61.4,29.81,SE,146,11.0,13.0,64,0.00,,,0.00,Wunderground v.1.13,2013-03-04 23:55:00,
2013-03-04 18:05:00,73.9,61.8,29.81,South,189,8.0,11.0,66,0.00,,,0.00,Wunderground v.1.13,2013-03-05 00:05:00,
2013-03-04 18:15:00,73.3,61.7,29.82,SSW,192,9.0,9.0,67,0.00,,,0.00,Wunderground v.1.13,2013-03-05 00:15:00,
2013-03-04 18:20:00,73.0,61.8,29.82,SSE,167,10.0,16.0,68,0.00,,,0.00,Wunderground v.1.13,2013-03-05 00:20:00,
2013-03-04 18:25:00,72.8,62.0,29.82,SSE,161,11.0,11.0,69,0.00,,,0.00,Wunderground v.1.13,2013-03-05 00:25:00,
2013-03-04 18:35:00,72.2,62.3,29.81,South,171,10.0,10.0,71,0.00,,,0.00,Wunderground v.1.13,2013-03-05 00:35:00,
2013-03-04 18:40:00,72.0,62.1,29.82,SSE,147,10.0,10.0,71,0.00,,,0.00,Wunderground v.1.13,2013-03-05 00:40:00,
2013-03-04 18:50:00,71.5,62.4,29.82,East,88,10.0,10.0,73,0.00,,,0.00,Wunderground v.1.13,2013-03-05 00:50:00,
2013-03-04 19:00:00,71.2,62.5,29.82,South,185,9.0,9.0,74,0.00,,,0.00,Wunderground v.1.13,2013-03-05 01:00:00,
2013-03-04 19:05:00,70.9,62.6,29.83,South,182,8.0,8.0,75,0.00,,,0.00,Wunderground v.1.13,2013-03-05 01:05:00,
2013-03-04 19:15:00,70.6,62.7,29.83,SE,144,8.0,9.0,76,0.00,,,0.00,Wunderground v.1.13,2013-03-05 01:15:00,
2013-03-04 19:20:00,70.5,62.6,29.83,SE,138,8.0,15.0,76,0.00,,,0.00,Wunderground v.1.13,2013-03-05 01:20:00,
2013-03-04 19:25:00,70.4,62.8,29.83,SSE,163,9.0,9.0,77,0.00,,,0.00,Wunderground v.1.13,2013-03-05 01:25:00,
2013-03-04 19:35:00,70.1,62.9,29.84,SSW,196,7.0,7.0,78,0.00,,,0.00,Wunderground v.1.13,2013-03-05 01:35:00,
2013-03-04 19:40:00,69.9,63.1,29.84,SE,140,7.0,11.0,79,0.00,,,0.00,Wunderground v.1.13,2013-03-05 01:40:00,
2013-03-04 19:45:00,69.7,62.9,29.84,SSE,166,6.0,9.0,79,0.00,,,0.00,Wunderground v.1.13,2013-03-05 01:45:00,
2013-03-04 19:50:00,69.8,63.3,29.85,SSE,147,8.0,9.0,80,0.00,,,0.00,Wunderground v.1.13,2013-03-05 01:50:00,
2013-03-04 19:55:00,69.7,63.3,29.85,South,187,8.0,9.0,80,0.00,,,0.00,Wunderground v.1.13,2013-03-05 01:55:00,
2013-03-04 20:05:00,69.6,63.5,29.85,SE,131,9.0,9.0,81,0.00,,,0.00,Wunderground v.1.13,2013-03-05 02:05:00,
2013-03-04 20:15:00,69.4,63.3,29.85,SSW,193,8.0,8.0,81,0.00,,,0.00,Wunderground v.1.13,2013-03-05 02:15:00,
2013-03-04 20:25:00,69.3,63.6,29.85,SSE,165,8.0,11.0,82,0.00,,,0.00,Wunderground v.1.13,2013-03-05 02:25:00,
2013-03-04 20:30:00,69.3,63.6,29.85,SSE,148,9.0,10.0,82,0.00,,,0.00,Wunderground v.1.13,2013-03-05 02:30:00,
2013-03-04 20:40:00,69.2,63.5,29.85,SE,124,9.0,9.0,82,0.00,,,0.00,Wunderground v.1.13,2013-03-05 02:40:00,
2013-03-04 20:45:00,69.2,63.8,29.85,SE,127,9.0,9.0,83,0.00,,,0.00,Wunderground v.1.13,2013-03-05 02:45:00,
2013-03-04 20:50:00,69.1,63.7,29.85,ESE,122,9.0,9.0,83,0.00,,,0.00,Wunderground v.1.13,2013-03-05 02:50:00,
2013-03-04 21:00:00,69.0,63.6,29.85,SSE,168,8.0,8.0,83,0.00,,,0.00,Wunderground v.1.13,2013-03-05 03:00:00,
2013-03-04 21:05:00,69.0,63.6,29.85,SSE,149,9.0,9.0,83,0.00,,,0.00,Wunderground v.1.13,2013-03-05 03:05:00,
2013-03-04 21:15:00,68.8,63.4,29.86,East,88,8.0,8.0,83,0.00,,,0.00,Wunderground v.1.13,2013-03-05 03:15:00,
2013-03-04 21:20:00,68.8,63.4,29.86,SSE,158,9.0,20.0,83,0.00,,,0.00,Wunderground v.1.13,2013-03-05 03:20:00,
2013-03-04 21:25:00,68.8,63.4,29.86,SSE,158,9.0,20.0,83,0.00,,,0.00,Wunderground v.1.13,2013-03-05 03:25:00,
2013-03-04 21:30:00,68.8,63.4,29.86,SSE,158,9.0,20.0,83,0.00,,,0.00,Wunderground v.1.13,2013-03-05 03:30:00,
2013-03-04 21:35:00,68.8,63.4,29.86,SSE,158,9.0,20.0,83,0.00,,,0.00,Wunderground v.1.13,2013-03-05 03:35:00,
2013-03-04 21:40:00,68.8,63.4,29.86,SSE,158,9.0,20.0,83,0.00,,,0.00,Wunderground v.1.13,2013-03-05 03:40:00,
2013-03-04 21:45:00,68.8,63.4,29.86,SSE,158,10.0,24.0,83,0.00,,,0.00,Wunderground v.1.13,2013-03-05 03:45:00,
2013-03-04 21:50:00,68.8,63.4,29.86,SSE,158,10.0,24.0,83,0.00,,,0.00,Wunderground v.1.13,2013-03-05 03:50:00,
2013-03-04 21:55:00,68.8,63.4,29.86,SSE,158,10.0,24.0,83,0.00,,,0.00,Wunderground v.1.13,2013-03-05 03:55:00,
2013-03-04 22:00:00,68.8,63.4,29.86,SSE,158,10.0,24.0,83,0.00,,,0.00,Wunderground v.1.13,2013-03-05 04:00:00,
2013-03-04 22:05:00,68.8,63.4,29.86,SSE,158,10.0,24.0,83,0.00,,,0.00,Wunderground v.1.13,2013-03-05 04:05:00,
2013-03-04 22:10:00,68.8,63.4,29.86,SSE,158,10.0,24.0,83,0.00,,,0.00,Wunderground v.1.13,2013-03-05 04:10:00,
2013-03-04 22:15:00,68.7,63.7,29.87,SSE,158,9.0,21.0,84,0.00,,,0.00,Wunderground v.1.13,2013-03-05 04:15:00,
2013-03-04 22:20:00,68.7,63.7,29.87,SSE,158,9.0,21.0,84,0.00,,,0.00,Wunderground v.1.13,2013-03-05 04:20:00,
2013-03-04 22:25:00,68.7,63.7,29.87,SSE,158,9.0,21.0,84,0.00,,,0.00,Wunderground v.1.13,2013-03-05 04:25:00,
2013-03-04 22:30:00,68.7,63.7,29.87,SSE,158,9.0,21.0,84,0.00,,,0.00,Wunderground v.1.13,2013-03-05 04:30:00,
2013-03-04 22:35:00,68.7,63.7,29.87,SSE,158,9.0,21.0,84,0.00,,,0.00,Wunderground v.1.13,2013-03-05 04:35:00,
2013-03-04 22:45:00,68.6,63.6,29.87,SSE,158,9.0,20.0,84,0.00,,,0.00,Wunderground v.1.13,2013-03-05 04:45:00,
2013-03-04 22:50:00,68.6,63.6,29.87,SSE,158,9.0,20.0,84,0.00,,,0.00,Wunderground v.1.13,2013-03-05 04:50:00,
2013-03-04 22:55:00,68.6,63.6,29.87,SSE,158,9.0,20.0,84,0.00,,,0.00,Wunderground v.1.13,2013-03-05 04:55:00,
2013-03-04 23:00:00,68.6,63.6,29.87,SSE,158,9.0,20.0,84,0.00,,,0.00,Wunderground v.1.13,2013-03-05 05:00:00,
2013-03-04 23:05:00,68.6,63.6,29.87,SSE,158,9.0,20.0,84,0.00,,,0.00,Wunderground v.1.13,2013-03-05 05:05:00,
2013-03-04 23:10:00,68.6,63.6,29.87,SSE,158,9.0,20.0,84,0.00,,,0.00,Wunderground v.1.13,2013-03-05 05:10:00,
2013-03-04 23:15:00,68.4,63.7,29.87,SSE,158,8.0,20.0,85,0.00,,,0.00,Wunderground v.1.13,2013-03-05 05:15:00,
2013-03-04 23:20:00,68.4,63.7,29.87,SSE,158,8.0,20.0,85,0.00,,,0.00,Wunderground v.1.13,2013-03-05 05:20:00,
2013-03-04 23:25:00,68.4,63.7,29.87,SSE,158,8.0,20.0,85,0.00,,,0.00,Wunderground v.1.13,2013-03-05 05:25:00,
2013-03-04 23:30:00,68.4,63.7,29.87,SSE,158,8.0,20.0,85,0.00,,,0.00,Wunderground v.1.13,2013-03-05 05:30:00,
2013-03-04 23:35:00,68.4,63.7,29.87,SSE,158,8.0,20.0,85,0.00,,,0.00,Wunderground v.1.13,2013-03-05 05:35:00,
2013-03-04 23:40:00,68.4,63.7,29.87,SSE,158,8.0,20.0,85,0.00,,,0.00,Wunderground v.1.13,2013-03-05 05:40:00,
2013-03-04 23:45:00,68.4,63.4,29.86,SSE,158,9.0,20.0,84,0.00,,,0.00,Wunderground v.1.13,2013-03-05 05:45:00,
2013-03-04 23:50:00,68.4,63.4,29.86,SSE,158,9.0,20.0,84,0.00,,,0.00,Wunderground v.1.13,2013-03-05 05:50:00,
2013-03-04 23:55:00,68.4,63.4,29.86,SSE,158,9.0,20.0,84,0.00,,,0.00,Wunderground v.1.13,2013-03-05 05:55:00,